Time;durP1;ratioP1;P1;durP2;ratioP2;P2;SDS_P1;SDS_P2;PMS_P1;PMS_P2;Temp;Humidity;BMP_temperature;BMP_pressure;BME280_temperature;BME280_humidity;BME280_pressure;Samples;Min_cycle;Max_cycle;Signal;HPM_P1;HPM_P2
2022/09/06 00:01:26;;;;;;;1.25;0.70;;;22.70;70.60;;;;;;5031336;28;20563;-64
2022/09/06 00:03:52;;;;;;;0.90;0.70;;;22.60;70.90;;;;;;5031551;28;20469;-64
2022/09/06 00:06:19;;;;;;;2.47;0.80;;;22.60;71.20;;;;;;5031607;28;20084;-65
2022/09/06 00:08:46;;;;;;;1.70;0.60;;;22.60;71.60;;;;;;5026810;28;20021;-64
2022/09/06 00:11:13;;;;;;;1.58;0.95;;;22.60;71.90;;;;;;5031713;28;20037;-64
2022/09/06 00:13:39;;;;;;;1.27;0.60;;;22.60;72.50;;;;;;5021471;28;20020;-64
2022/09/06 00:16:07;;;;;;;2.28;0.80;;;22.60;72.90;;;;;;5031263;28;20029;-64
2022/09/06 00:18:32;;;;;;;1.38;0.80;;;22.60;73.50;;;;;;5031682;28;20124;-64
2022/09/06 00:20:58;;;;;;;1.30;0.75;;;22.50;73.90;;;;;;5032061;28;20521;-64
2022/09/06 00:23:23;;;;;;;1.00;0.52;;;22.50;74.00;;;;;;5031111;28;20052;-64
2022/09/06 00:25:49;;;;;;;1.65;0.90;;;22.40;74.30;;;;;;5031093;28;20075;-64
2022/09/06 00:28:15;;;;;;;1.35;0.57;;;22.40;74.30;;;;;;5029740;28;20021;-64
2022/09/06 00:30:40;;;;;;;1.10;0.70;;;22.30;74.60;;;;;;5018961;28;20088;-64
2022/09/06 00:33:06;;;;;;;2.90;0.70;;;22.30;74.60;;;;;;5031046;28;20048;-64
2022/09/06 00:35:31;;;;;;;1.05;0.70;;;22.20;74.80;;;;;;5030715;28;20022;-64
2022/09/06 00:37:59;;;;;;;1.27;0.70;;;22.10;75.30;;;;;;5030976;28;20124;-64
2022/09/06 00:40:28;;;;;;;1.00;0.60;;;22.00;75.60;;;;;;5030759;28;20039;-64
2022/09/06 00:42:54;;;;;;;1.55;0.90;;;21.90;76.30;;;;;;5013069;28;20462;-64
2022/09/06 00:45:21;;;;;;;1.73;1.30;;;21.80;77.60;;;;;;5030802;28;20918;-64
2022/09/06 00:47:47;;;;;;;2.45;1.30;;;21.60;80.60;;;;;;5030664;28;20021;-64
2022/09/06 00:50:14;;;;;;;1.02;0.80;;;21.30;81.60;;;;;;5023587;28;20515;-64
2022/09/06 00:52:41;;;;;;;1.63;1.00;;;21.30;81.40;;;;;;5030517;28;20445;-64
2022/09/06 00:55:07;;;;;;;1.02;0.85;;;21.30;81.20;;;;;;5030420;28;20037;-64
2022/09/06 00:57:33;;;;;;;2.55;0.70;;;21.40;81.10;;;;;;5030387;28;20033;-64
2022/09/06 01:00:00;;;;;;;1.48;0.98;;;21.40;80.90;;;;;;5030273;28;20391;-64
2022/09/06 01:02:26;;;;;;;1.98;1.20;;;21.40;80.80;;;;;;5030385;28;20033;-64
2022/09/06 01:04:53;;;;;;;4.28;1.80;;;21.40;81.50;;;;;;5028863;28;20119;-64
2022/09/06 01:07:40;;;;;;;2.00;1.80;;;21.30;82.60;;;;;;5029033;28;20076;-64
2022/09/06 01:10:12;;;;;;;4.45;3.20;;;21.30;83.30;;;;;;5030908;28;20018;-64
2022/09/06 01:13:08;;;;;;;5.00;2.20;;;21.00;86.80;;;;;;5028688;28;20025;-64
2022/09/06 01:15:43;;;;;;;4.18;1.60;;;20.90;87.80;;;;;;5029776;28;20032;-64
2022/09/06 01:18:36;;;;;;;3.80;1.80;;;20.80;87.80;;;;;;5029900;28;20034;-64
2022/09/06 01:21:21;;;;;;;2.78;1.83;;;20.80;87.70;;;;;;5030369;28;20497;-64
2022/09/06 01:24:16;;;;;;;3.35;2.10;;;20.70;88.50;;;;;;5030001;28;20026;-64
2022/09/06 01:27:18;;;;;;;3.35;1.77;;;20.80;88.40;;;;;;5029822;28;20371;-64
2022/09/06 01:30:04;;;;;;;1.52;1.33;;;20.80;88.50;;;;;;5028650;28;20136;-64
2022/09/06 01:32:33;;;;;;;1.75;1.42;;;20.80;88.80;;;;;;5030263;28;20021;-64
2022/09/06 01:35:18;;;;;;;1.90;1.33;;;20.80;88.90;;;;;;5029900;28;20017;-64
2022/09/06 01:37:43;;;;;;;1.80;1.35;;;20.80;88.80;;;;;;5028801;28;20033;-64
2022/09/06 01:40:09;;;;;;;2.70;1.52;;;20.70;88.80;;;;;;5025456;28;20029;-64
2022/09/06 01:42:37;;;;;;;2.92;1.58;;;20.70;88.70;;;;;;5025645;28;20032;-64
2022/09/06 01:45:14;;;;;;;1.92;1.63;;;20.80;88.60;;;;;;5028522;28;20486;-64
2022/09/06 01:47:56;;;;;;;2.08;1.65;;;20.80;88.70;;;;;;5029985;28;20076;-64
2022/09/06 01:50:44;;;;;;;1.80;1.48;;;20.80;89.00;;;;;;5029786;28;20564;-64
2022/09/06 01:53:20;;;;;;;1.65;1.40;;;20.80;89.30;;;;;;5017118;28;20397;-64
2022/09/06 01:55:59;;;;;;;1.63;1.30;;;20.70;89.70;;;;;;5029571;28;20551;-64
2022/09/06 01:59:06;;;;;;;1.65;1.35;;;20.70;90.00;;;;;;5028562;28;20470;-64
2022/09/06 02:01:51;;;;;;;1.98;1.38;;;20.70;90.00;;;;;;5014807;28;20041;-64
2022/09/06 02:04:25;;;;;;;1.70;1.45;;;20.60;90.20;;;;;;5029637;28;20025;-64
2022/09/06 02:06:59;;;;;;;3.22;1.90;;;20.60;90.40;;;;;;5029090;28;20479;-64
2022/09/06 02:09:30;;;;;;;2.80;1.50;;;20.70;90.40;;;;;;5029547;28;20501;-64
2022/09/06 02:12:01;;;;;;;2.63;1.80;;;20.60;90.50;;;;;;5028251;28;20026;-64
2022/09/06 02:14:35;;;;;;;2.28;1.58;;;20.60;90.70;;;;;;5029153;28;20040;-64
2022/09/06 02:17:02;;;;;;;3.65;2.75;;;20.60;90.70;;;;;;5028903;28;20132;-64
2022/09/06 02:19:49;;;;;;;3.05;2.50;;;20.50;91.30;;;;;;5029128;28;20090;-64
2022/09/06 02:22:19;;;;;;;3.70;2.58;;;20.50;91.60;;;;;;5025340;28;20083;-64
2022/09/06 02:24:48;;;;;;;3.78;2.40;;;20.40;92.50;;;;;;5028833;28;20512;-64
2022/09/06 02:27:14;;;;;;;3.30;2.58;;;20.30;92.50;;;;;;5027983;28;20025;-64
2022/09/06 02:29:40;;;;;;;3.88;2.45;;;20.30;92.80;;;;;;5028854;28;20630;-64
2022/09/06 02:32:17;;;;;;;2.58;1.90;;;20.20;92.90;;;;;;5028614;28;20029;-64
2022/09/06 02:34:45;;;;;;;3.00;1.90;;;20.20;92.90;;;;;;5029020;28;20031;-64
2022/09/06 02:37:12;;;;;;;2.97;2.15;;;20.20;92.80;;;;;;5026961;28;20492;-64
2022/09/06 02:39:38;;;;;;;2.90;1.60;;;20.20;92.70;;;;;;5028315;28;20116;-64
2022/09/06 02:42:04;;;;;;;4.03;1.70;;;20.20;92.70;;;;;;5028751;28;20104;-64
2022/09/06 02:44:31;;;;;;;3.63;1.77;;;20.20;92.70;;;;;;5026896;28;20100;-64
2022/09/06 02:47:04;;;;;;;2.10;1.75;;;20.20;92.70;;;;;;5028761;28;20028;-64
2022/09/06 02:49:32;;;;;;;4.03;2.20;;;20.20;92.70;;;;;;5028545;28;20025;-64
2022/09/06 02:51:57;;;;;;;1.85;1.50;;;20.20;92.80;;;;;;5028831;28;20420;-64
2022/09/06 02:54:25;;;;;;;2.88;1.83;;;20.20;92.80;;;;;;5028504;28;20029;-64
2022/09/06 02:56:51;;;;;;;3.17;1.67;;;20.20;92.80;;;;;;5028269;28;20021;-64
2022/09/06 02:59:16;;;;;;;2.28;1.80;;;20.10;92.90;;;;;;5028503;28;20382;-64
2022/09/06 03:01:42;;;;;;;3.38;1.90;;;20.20;92.90;;;;;;5026670;28;20024;-64
2022/09/06 03:04:07;;;;;;;3.33;1.75;;;20.20;92.90;;;;;;5028671;28;20515;-64
2022/09/06 03:06:33;;;;;;;2.33;1.98;;;20.20;92.90;;;;;;5028426;28;20148;-64
2022/09/06 03:08:59;;;;;;;2.67;2.33;;;20.10;92.90;;;;;;5028379;28;20053;-64
2022/09/06 03:11:25;;;;;;;2.83;1.98;;;20.10;93.00;;;;;;5028308;28;20496;-64
2022/09/06 03:13:51;;;;;;;3.25;2.58;;;20.10;93.10;;;;;;5026595;28;20026;-64
2022/09/06 03:16:17;;;;;;;4.68;3.53;;;20.00;93.40;;;;;;5028082;28;20021;-64
2022/09/06 03:18:43;;;;;;;4.00;3.60;;;19.90;94.10;;;;;;5028240;28;20111;-63
2022/09/06 03:21:08;;;;;;;4.13;3.47;;;19.80;94.60;;;;;;5028158;28;20485;-64
2022/09/06 03:23:34;;;;;;;3.70;3.30;;;19.70;95.00;;;;;;5031314;28;20219;-64
2022/09/06 03:25:59;;;;;;;3.40;2.97;;;19.60;95.30;;;;;;5032177;28;20021;-64
2022/09/06 03:28:25;;;;;;;5.90;4.22;;;19.50;95.40;;;;;;5032156;28;20025;-63
2022/09/06 03:30:51;;;;;;;6.15;4.38;;;19.40;95.70;;;;;;5032106;28;20049;-64
2022/09/06 03:33:17;;;;;;;6.43;5.32;;;19.40;96.10;;;;;;5031709;28;20470;-64
2022/09/06 03:35:58;;;;;;;5.53;5.03;;;19.40;96.50;;;;;;5032147;28;20029;-64
2022/09/06 03:38:26;;;;;;;8.88;6.70;;;19.30;96.70;;;;;;5030651;28;20033;-64
2022/09/06 03:40:52;;;;;;;5.82;5.20;;;19.30;97.10;;;;;;5032018;28;20456;-64
2022/09/06 03:43:19;;;;;;;6.30;5.68;;;19.20;97.40;;;;;;5031774;28;20037;-64
2022/09/06 03:45:46;;;;;;;7.57;6.78;;;19.20;97.70;;;;;;5028099;28;20094;-64
2022/09/06 03:48:12;;;;;;;7.45;6.75;;;19.10;98.00;;;;;;5031496;28;20026;-64
2022/09/06 03:50:37;;;;;;;9.07;7.20;;;19.00;98.40;;;;;;5031781;28;20044;-64
2022/09/06 03:53:03;;;;;;;7.55;6.85;;;19.00;98.80;;;;;;5031946;28;20516;-63
2022/09/06 03:55:29;;;;;;;7.80;7.03;;;18.90;99.20;;;;;;5016737;28;20064;-64
2022/09/06 03:57:54;;;;;;;7.35;6.32;;;18.80;99.50;;;;;;5029133;28;20082;-64
2022/09/06 04:00:20;;;;;;;7.57;6.88;;;18.80;99.50;;;;;;5031977;28;20095;-63
2022/09/06 04:02:45;;;;;;;8.77;7.63;;;18.80;99.50;;;;;;5030066;28;20535;-64
2022/09/06 04:05:12;;;;;;;8.00;7.10;;;18.80;99.70;;;;;;5031305;28;20028;-64
2022/09/06 04:07:37;;;;;;;9.73;8.75;;;18.80;99.80;;;;;;5031614;28;20014;-64
2022/09/06 04:10:06;;;;;;;9.90;6.82;;;18.80;99.90;;;;;;5031558;28;20034;-64
2022/09/06 04:12:33;;;;;;;10.30;7.15;;;18.80;99.90;;;;;;5031496;28;20029;-63
2022/09/06 04:14:59;;;;;;;6.95;6.32;;;18.80;99.90;;;;;;5027189;28;20555;-63
2022/09/06 04:17:24;;;;;;;6.75;5.72;;;18.80;99.90;;;;;;5031166;28;20044;-64
2022/09/06 04:19:50;;;;;;;5.68;5.18;;;18.80;99.80;;;;;;5031154;28;20489;-63
2022/09/06 04:22:15;;;;;;;6.30;5.50;;;18.80;99.60;;;;;;5031620;28;20030;-64
2022/09/06 04:24:41;;;;;;;5.93;4.95;;;18.80;99.50;;;;;;5031630;28;20526;-63
2022/09/06 04:27:06;;;;;;;6.82;6.13;;;18.80;99.50;;;;;;5030999;28;20033;-64
2022/09/06 04:29:32;;;;;;;5.68;5.18;;;18.90;99.40;;;;;;5030857;28;20045;-63
2022/09/06 04:31:57;;;;;;;5.28;4.78;;;18.90;99.30;;;;;;5030797;28;20521;-64
2022/09/06 04:34:24;;;;;;;6.22;5.25;;;18.80;99.20;;;;;;5030153;28;20055;-63
2022/09/06 04:36:49;;;;;;;5.22;4.53;;;18.90;99.20;;;;;;5030674;28;20033;-64
2022/09/06 04:39:15;;;;;;;4.95;4.45;;;18.90;99.20;;;;;;5030980;28;20034;-64
2022/09/06 04:41:41;;;;;;;4.47;3.75;;;18.90;99.10;;;;;;5030690;28;20032;-63
2022/09/06 04:44:07;;;;;;;4.38;3.78;;;18.90;99.00;;;;;;5030709;28;20018;-64
2022/09/06 04:46:32;;;;;;;4.65;4.13;;;18.90;98.80;;;;;;5031148;28;20033;-63
2022/09/06 04:49:00;;;;;;;3.90;3.60;;;19.00;98.70;;;;;;5032850;28;20021;-64
2022/09/06 04:51:25;;;;;;;4.38;3.97;;;18.90;98.90;;;;;;5033741;28;20033;-63
2022/09/06 04:53:52;;;;;;;6.32;4.15;;;18.90;98.60;;;;;;5034305;28;20396;-64
2022/09/06 04:56:20;;;;;;;6.50;3.55;;;18.90;98.60;;;;;;5029464;28;20072;-64
2022/09/06 04:58:47;;;;;;;4.20;3.80;;;18.90;98.60;;;;;;5033938;28;20017;-63
2022/09/06 05:01:13;;;;;;;4.78;3.80;;;18.90;98.50;;;;;;5033465;28;20033;-64
2022/09/06 05:03:41;;;;;;;3.85;3.50;;;18.90;98.40;;;;;;5032898;28;20567;-64
2022/09/06 05:06:10;;;;;;;4.05;3.63;;;18.90;98.30;;;;;;5034122;28;20021;-64
2022/09/06 05:08:37;;;;;;;3.90;3.50;;;18.90;98.30;;;;;;5022778;28;20022;-64
2022/09/06 05:11:03;;;;;;;4.88;3.45;;;18.90;98.20;;;;;;5034092;28;20025;-63
2022/09/06 05:13:29;;;;;;;4.45;4.05;;;18.90;98.10;;;;;;5032593;28;20025;-64
2022/09/06 05:15:55;;;;;;;4.10;3.70;;;18.80;98.00;;;;;;5033844;28;20017;-64
2022/09/06 05:18:20;;;;;;;4.00;3.55;;;18.80;97.80;;;;;;5033989;28;20026;-64
2022/09/06 05:20:53;;;;;;;4.80;3.83;;;18.90;97.80;;;;;;5032484;28;20022;-64
2022/09/06 05:23:19;;;;;;;4.45;3.97;;;18.90;97.70;;;;;;5033395;28;20029;-63
2022/09/06 05:25:45;;;;;;;4.60;3.67;;;18.90;97.60;;;;;;5032540;28;20056;-64
2022/09/06 05:28:11;;;;;;;9.85;7.22;;;18.90;97.50;;;;;;5033155;28;20504;-64
2022/09/06 05:30:44;;;;;;;9.07;6.90;;;18.90;97.70;;;;;;5033569;28;20053;-64
2022/09/06 05:33:10;;;;;;;6.70;6.10;;;18.70;97.90;;;;;;5018975;28;20056;-64
2022/09/06 05:35:36;;;;;;;7.57;6.78;;;18.50;98.40;;;;;;5033599;28;20025;-63
2022/09/06 05:38:01;;;;;;;8.18;7.38;;;18.40;98.90;;;;;;5033353;28;20035;-64
2022/09/06 05:40:27;;;;;;;7.95;7.15;;;18.30;99.20;;;;;;5033534;28;20080;-64
2022/09/06 05:42:53;;;;;;;8.70;7.70;;;18.30;99.60;;;;;;5031629;28;20040;-64
2022/09/06 05:45:18;;;;;;;6.97;6.28;;;18.20;99.90;;;;;;5032589;28;20474;-63
2022/09/06 05:47:44;;;;;;;7.28;6.50;;;18.20;99.90;;;;;;5033145;28;20029;-64
2022/09/06 05:50:10;;;;;;;6.93;6.22;;;18.20;99.90;;;;;;5033160;28;20068;-64
2022/09/06 05:52:35;;;;;;;5.10;4.60;;;18.20;99.80;;;;;;5032853;28;20036;-64
2022/09/06 05:55:02;;;;;;;5.82;4.50;;;18.30;99.60;;;;;;5033320;28;20029;-64
2022/09/06 05:57:28;;;;;;;4.72;4.22;;;18.40;99.40;;;;;;5031641;28;20112;-64
2022/09/06 05:59:53;;;;;;;5.00;3.95;;;18.40;99.20;;;;;;5032824;28;20132;-64
2022/09/06 06:02:20;;;;;;;4.30;3.63;;;18.40;99.10;;;;;;5031853;28;20508;-64
2022/09/06 06:04:46;;;;;;;4.20;3.80;;;18.50;99.00;;;;;;5031752;28;20104;-64
2022/09/06 06:07:12;;;;;;;4.82;4.35;;;18.50;98.90;;;;;;5027910;28;20105;-64
2022/09/06 06:09:37;;;;;;;4.85;4.10;;;18.60;98.80;;;;;;5032410;28;20028;-64
2022/09/06 06:12:08;;;;;;;4.30;3.90;;;18.60;98.70;;;;;;5024859;28;20042;-64
2022/09/06 06:14:34;;;;;;;5.05;4.55;;;18.60;98.70;;;;;;5019857;28;20063;-64
2022/09/06 06:17:00;;;;;;;6.85;4.88;;;18.60;98.60;;;;;;5030647;28;20374;-64
2022/09/06 06:19:26;;;;;;;4.85;4.03;;;18.70;98.60;;;;;;5031506;28;20049;-64
2022/09/06 06:21:52;;;;;;;5.15;4.40;;;18.80;98.60;;;;;;5031327;28;20064;-64
2022/09/06 06:24:17;;;;;;;5.25;4.78;;;18.80;98.50;;;;;;5031375;28;20412;-64
2022/09/06 06:26:45;;;;;;;4.72;4.32;;;18.80;98.50;;;;;;5031075;28;20041;-64
2022/09/06 06:29:10;;;;;;;5.57;4.88;;;18.80;98.40;;;;;;5031431;28;20100;-63
2022/09/06 06:31:37;;;;;;;5.40;4.22;;;18.90;98.40;;;;;;5031248;28;20125;-64
2022/09/06 06:34:03;;;;;;;8.20;7.35;;;18.90;98.40;;;;;;5031813;28;20032;-64
2022/09/06 06:36:32;;;;;;;6.57;5.88;;;18.90;98.50;;;;;;5031144;28;20393;-64
2022/09/06 06:38:58;;;;;;;6.20;5.60;;;18.90;98.50;;;;;;5031067;28;20017;-64
2022/09/06 06:41:26;;;;;;;7.25;6.15;;;19.00;98.40;;;;;;5031060;28;20105;-64
2022/09/06 06:43:53;;;;;;;7.38;5.75;;;19.00;98.50;;;;;;5031339;28;20489;-64
2022/09/06 06:46:19;;;;;;;6.30;5.63;;;19.10;98.50;;;;;;5030743;28;20091;-64
2022/09/06 06:48:45;;;;;;;7.70;6.90;;;19.10;98.40;;;;;;5031181;28;20021;-64
2022/09/06 06:51:13;;;;;;;5.97;5.47;;;19.10;98.50;;;;;;5029924;28;20032;-64
2022/09/06 06:53:41;;;;;;;7.35;6.35;;;19.10;98.40;;;;;;5031271;28;20028;-63
2022/09/06 06:56:24;;;;;;;7.88;6.55;;;19.10;98.40;;;;;;5031268;28;20017;-63
2022/09/06 06:58:52;;;;;;;6.63;6.03;;;19.20;98.40;;;;;;5029291;28;20028;-63
2022/09/06 07:01:21;;;;;;;5.75;5.15;;;19.20;98.30;;;;;;5030889;28;20026;-64
2022/09/06 07:03:47;;;;;;;6.15;5.55;;;19.20;98.20;;;;;;5019597;28;20021;-64
2022/09/06 07:06:13;;;;;;;7.72;5.70;;;19.30;98.10;;;;;;5030966;28;20025;-64
2022/09/06 07:08:40;;;;;;;8.10;7.30;;;19.40;98.10;;;;;;5031894;28;20036;-64
2022/09/06 07:11:07;;;;;;;8.20;7.40;;;19.40;98.10;;;;;;5032272;28;20557;-64
2022/09/06 07:13:33;;;;;;;11.35;10.15;;;19.50;98.20;;;;;;5032031;28;20036;-64
2022/09/06 07:16:19;;;;;;;9.82;8.93;;;19.40;98.30;;;;;;5032313;28;20061;-64
2022/09/06 07:18:45;;;;;;;11.38;10.20;;;19.50;98.00;;;;;;5030662;28;20099;-64
2022/09/06 07:21:25;;;;;;;9.93;8.98;;;19.50;97.90;;;;;;5032021;28;20048;-64
2022/09/06 07:23:52;;;;;;;9.93;8.98;;;19.50;97.70;;;;;;5021617;28;20025;-63
2022/09/06 07:26:20;;;;;;;8.75;7.35;;;19.50;97.70;;;;;;5032064;28;20477;-64
2022/09/06 07:28:55;;;;;;;10.05;8.88;;;19.60;97.60;;;;;;5030521;28;20036;-64
2022/09/06 07:31:21;;;;;;;10.40;9.30;;;19.60;97.50;;;;;;5030498;28;20049;-64
2022/09/06 07:33:47;;;;;;;11.90;9.77;;;19.60;97.50;;;;;;5030232;28;20030;-64
2022/09/06 07:36:12;;;;;;;10.43;9.25;;;19.70;97.40;;;;;;5030718;28;20026;-64
2022/09/06 07:38:39;;;;;;;11.25;10.10;;;19.70;97.40;;;;;;5030371;28;20029;-64
2022/09/06 07:41:06;;;;;;;11.38;10.38;;;19.80;97.30;;;;;;5030483;28;20484;-64
2022/09/06 07:43:32;;;;;;;12.60;10.35;;;19.80;97.20;;;;;;5026794;28;20079;-64
2022/09/06 07:46:00;;;;;;;11.65;10.52;;;19.90;97.00;;;;;;5029389;28;20025;-64
2022/09/06 07:48:28;;;;;;;12.80;11.50;;;19.90;96.90;;;;;;5030448;28;20499;-64
2022/09/06 07:50:54;;;;;;;12.02;10.93;;;20.00;96.60;;;;;;5030388;28;20034;-64
2022/09/06 07:53:19;;;;;;;15.25;12.88;;;20.10;96.10;;;;;;5030160;28;20041;-64
2022/09/06 07:55:45;;;;;;;12.00;10.85;;;20.10;96.00;;;;;;5028973;28;20022;-64
2022/09/06 07:58:11;;;;;;;14.02;12.60;;;20.10;96.20;;;;;;5030374;28;20018;-64
2022/09/06 08:00:37;;;;;;;14.35;12.02;;;20.20;96.20;;;;;;5029356;28;20139;-64
2022/09/06 08:03:03;;;;;;;12.45;11.23;;;20.30;96.10;;;;;;5030498;28;20151;-64
2022/09/06 08:05:28;;;;;;;14.57;13.07;;;20.40;95.80;;;;;;5029933;28;20112;-64
2022/09/06 08:07:54;;;;;;;13.30;12.00;;;20.40;95.90;;;;;;5030429;28;20032;-64
2022/09/06 08:10:19;;;;;;;13.63;12.13;;;20.60;95.90;;;;;;5032641;28;20028;-64
2022/09/06 08:12:53;;;;;;;11.85;10.57;;;20.70;95.80;;;;;;5033719;28;20040;-64
2022/09/06 08:15:19;;;;;;;12.73;11.60;;;20.70;95.00;;;;;;5033642;28;20385;-64
2022/09/06 08:17:49;;;;;;;13.00;11.45;;;20.80;95.00;;;;;;5033726;28;20025;-64
2022/09/06 08:20:15;;;;;;;12.02;10.10;;;21.00;94.50;;;;;;5033551;28;20512;-64
2022/09/06 08:22:41;;;;;;;10.15;9.07;;;21.00;94.00;;;;;;5032011;28;20171;-64
2022/09/06 08:25:07;;;;;;;11.52;9.55;;;21.10;93.80;;;;;;5033467;28;20104;-64
2022/09/06 08:27:33;;;;;;;11.43;9.25;;;21.20;93.60;;;;;;5033671;28;20032;-64
2022/09/06 08:29:58;;;;;;;11.23;9.27;;;21.30;93.30;;;;;;5033564;28;20371;-64
2022/09/06 08:32:24;;;;;;;10.18;8.55;;;21.40;93.40;;;;;;5032235;28;20037;-64
2022/09/06 08:34:50;;;;;;;11.85;8.80;;;21.50;93.10;;;;;;5033279;28;20100;-64
2022/09/06 08:37:21;;;;;;;9.88;8.90;;;21.60;93.20;;;;;;5033333;28;20128;-64
2022/09/06 08:39:46;;;;;;;9.20;8.20;;;21.70;92.70;;;;;;5028791;28;20029;-64
2022/09/06 08:42:12;;;;;;;9.30;7.90;;;21.80;91.80;;;;;;5033233;28;20029;-64
2022/09/06 08:44:47;;;;;;;9.27;7.72;;;21.80;92.20;;;;;;5033085;28;20060;-64
2022/09/06 08:47:14;;;;;;;9.30;7.50;;;21.90;91.50;;;;;;5030997;28;20382;-64
2022/09/06 08:49:48;;;;;;;8.57;6.65;;;22.00;91.20;;;;;;5032862;28;20021;-64
2022/09/06 08:52:31;;;;;;;8.82;6.68;;;22.10;91.20;;;;;;5032977;28;20035;-64
2022/09/06 08:55:15;;;;;;;7.38;6.68;;;22.20;91.10;;;;;;5032916;28;20032;-64
2022/09/06 08:57:47;;;;;;;7.35;6.53;;;22.40;90.80;;;;;;5032933;28;20498;-64
2022/09/06 09:00:13;;;;;;;7.75;6.72;;;22.50;90.50;;;;;;5031202;28;20570;-64
2022/09/06 09:02:50;;;;;;;9.18;7.63;;;22.50;89.40;;;;;;5033922;28;20148;-64
2022/09/06 09:05:24;;;;;;;7.55;6.75;;;22.70;88.50;;;;;;5033909;28;20613;-64
2022/09/06 09:07:59;;;;;;;7.50;5.95;;;22.80;88.00;;;;;;5033823;28;20018;-64
2022/09/06 09:10:44;;;;;;;6.75;5.88;;;22.90;86.30;;;;;;5030738;28;20110;-64
2022/09/06 09:13:24;;;;;;;7.40;4.82;;;23.00;85.40;;;;;;5032772;28;20022;-64
2022/09/06 09:15:50;;;;;;;5.18;4.57;;;23.10;84.60;;;;;;5032758;28;20100;-64
2022/09/06 09:18:21;;;;;;;6.53;4.95;;;23.20;84.30;;;;;;5032461;28;20152;-64
2022/09/06 09:20:46;;;;;;;4.40;4.00;;;23.30;84.30;;;;;;5032236;28;20034;-64
2022/09/06 09:23:12;;;;;;;5.25;4.15;;;23.30;82.90;;;;;;5032621;28;20029;-64
2022/09/06 09:25:38;;;;;;;5.43;4.00;;;23.40;82.60;;;;;;5031874;28;20130;-64
2022/09/06 09:28:13;;;;;;;5.57;4.20;;;23.50;84.10;;;;;;5032616;28;20036;-65
2022/09/06 09:30:53;;;;;;;4.05;2.67;;;23.60;81.20;;;;;;5032299;28;20405;-64
2022/09/06 09:33:34;;;;;;;3.30;2.28;;;23.80;81.10;;;;;;5032277;28;20032;-64
2022/09/06 09:36:11;;;;;;;3.72;2.60;;;23.80;79.90;;;;;;5032194;28;20018;-64
2022/09/06 09:38:42;;;;;;;4.88;2.80;;;23.90;80.10;;;;;;5032205;28;20053;-64
2022/09/06 09:41:09;;;;;;;2.25;1.58;;;24.00;79.00;;;;;;5032231;28;20032;-65
2022/09/06 09:43:39;;;;;;;3.65;1.85;;;24.00;78.10;;;;;;5031959;28;20053;-64
2022/09/06 09:46:13;;;;;;;2.40;1.52;;;24.10;76.60;;;;;;5030705;28;20156;-64
2022/09/06 09:48:42;;;;;;;2.45;1.70;;;24.20;76.50;;;;;;5032627;28;20017;-64
2022/09/06 09:51:18;;;;;;;3.10;1.43;;;24.20;76.40;;;;;;5032089;28;20087;-65
2022/09/06 09:54:01;;;;;;;3.33;2.03;;;24.30;76.20;;;;;;5029806;28;20259;-64
2022/09/06 09:56:37;;;;;;;1.42;1.20;;;24.40;76.30;;;;;;5030256;28;20481;-64
2022/09/06 09:59:14;;;;;;;1.27;0.95;;;24.50;75.30;;;;;;5029825;28;20078;-64
2022/09/06 10:01:40;;;;;;;2.17;1.42;;;24.60;75.50;;;;;;5029575;28;20109;-65
2022/09/06 10:04:09;;;;;;;2.47;1.15;;;24.70;74.40;;;;;;5030486;28;20101;-65
2022/09/06 10:06:35;;;;;;;4.05;1.88;;;24.80;74.30;;;;;;5031692;28;20108;-64
2022/09/06 10:09:27;;;;;;;3.60;2.03;;;24.90;73.50;;;;;;5031819;28;20155;-65
2022/09/06 10:11:56;;;;;;;4.95;1.85;;;25.00;73.20;;;;;;5030891;28;20379;-64
2022/09/06 10:14:28;;;;;;;2.28;1.20;;;25.10;72.40;;;;;;5031509;28;20036;-65
2022/09/06 10:16:54;;;;;;;2.67;2.20;;;25.10;71.40;;;;;;5031803;28;20393;-65
2022/09/06 10:19:38;;;;;;;6.25;1.83;;;25.30;71.30;;;;;;5029497;28;20056;-65
2022/09/06 10:22:28;;;;;;;3.83;1.70;;;25.30;71.40;;;;;;5029579;28;20032;-65
2022/09/06 10:25:02;;;;;;;2.38;1.30;;;25.50;71.50;;;;;;5031511;28;20025;-65
2022/09/06 10:27:33;;;;;;;2.90;1.80;;;25.70;71.40;;;;;;5029736;28;20096;-65
2022/09/06 10:30:04;;;;;;;2.85;1.98;;;25.90;70.60;;;;;;5031189;28;20095;-66
2022/09/06 10:32:40;;;;;;;3.53;1.63;;;26.10;69.40;;;;;;5030553;28;20022;-65
2022/09/06 10:35:34;;;;;;;2.50;1.52;;;26.10;69.10;;;;;;5030383;28;20024;-65
2022/09/06 10:38:02;;;;;;;3.95;1.30;;;26.30;68.50;;;;;;5032875;28;20017;-65
2022/09/06 10:41:00;;;;;;;2.72;1.50;;;26.40;68.50;;;;;;5023126;28;20029;-65
2022/09/06 10:43:33;;;;;;;4.13;2.78;;;26.70;67.90;;;;;;5022801;28;20112;-65
2022/09/06 10:46:08;;;;;;;2.03;1.38;;;26.90;66.60;;;;;;5031437;28;20155;-65
2022/09/06 10:48:43;;;;;;;2.75;1.40;;;27.10;66.90;;;;;;5032723;28;20065;-65
2022/09/06 10:51:36;;;;;;;2.75;1.10;;;27.40;67.20;;;;;;5032116;28;20474;-65
2022/09/06 10:54:12;;;;;;;4.20;1.23;;;28.00;67.40;;;;;;5031714;28;20022;-65
2022/09/06 10:57:01;;;;;;;2.75;1.48;;;29.90;65.30;;;;;;5031730;28;20025;-65
2022/09/06 10:59:32;;;;;;;5.55;1.10;;;32.00;60.90;;;;;;5024758;28;20033;-65
2022/09/06 11:02:38;;;;;;;2.40;1.08;;;33.50;57.00;;;;;;5031007;28;20033;-65
2022/09/06 11:05:13;;;;;;;1.70;1.15;;;34.30;54.20;;;;;;5030948;28;20104;-65
2022/09/06 11:07:44;;;;;;;2.05;1.33;;;33.70;51.80;;;;;;5029072;28;20499;-65
2022/09/06 11:10:23;;;;;;;2.95;1.45;;;33.60;50.70;;;;;;5030860;28;20064;-65
2022/09/06 11:13:12;;;;;;;2.05;1.50;;;33.80;49.70;;;;;;5029697;28;20071;-66
2022/09/06 11:16:00;;;;;;;1.80;0.90;;;33.50;49.60;;;;;;5029190;28;20040;-66
2022/09/06 11:18:31;;;;;;;2.30;0.85;;;34.70;51.00;;;;;;5030953;28;20029;-65
2022/09/06 11:21:14;;;;;;;1.38;0.80;;;37.10;49.60;;;;;;5030775;28;20080;-66
2022/09/06 11:24:01;;;;;;;2.22;0.90;;;38.60;47.70;;;;;;5030235;28;20037;-66
2022/09/06 11:26:57;;;;;;;1.95;0.82;;;39.30;45.70;;;;;;5031408;28;20325;-66
2022/09/06 11:29:25;;;;;;;1.00;0.80;;;40.30;45.20;;;;;;5029045;28;20481;-66
2022/09/06 11:32:02;;;;;;;2.45;0.98;;;41.10;43.50;;;;;;5030596;28;20142;-66
2022/09/06 11:34:35;;;;;;;0.80;0.73;;;41.80;42.20;;;;;;5029470;28;20440;-66
2022/09/06 11:37:21;;;;;;;3.30;0.98;;;42.80;41.40;;;;;;5030219;28;20036;-66
2022/09/06 11:40:04;;;;;;;2.83;1.27;;;43.90;40.40;;;;;;5030774;28;20026;-66
2022/09/06 11:42:44;;;;;;;2.25;1.02;;;45.20;39.00;;;;;;5030573;28;20053;-66
2022/09/06 11:45:09;;;;;;;1.40;0.80;;;45.80;37.90;;;;;;5033375;28;20017;-66
2022/09/06 11:47:46;;;;;;;1.23;0.77;;;46.60;37.60;;;;;;5034199;28;20095;-66
2022/09/06 11:50:23;;;;;;;1.00;0.80;;;47.50;36.80;;;;;;5034357;28;20037;-66
2022/09/06 11:52:58;;;;;;;2.03;1.10;;;48.10;35.80;;;;;;5034206;28;20108;-66
2022/09/06 11:55:30;;;;;;;1.35;1.13;;;48.20;34.70;;;;;;5032642;28;20040;-64
2022/09/06 11:57:57;;;;;;;1.38;1.02;;;48.20;34.30;;;;;;5032228;28;20034;-64
2022/09/06 12:00:23;;;;;;;1.58;1.42;;;47.70;34.10;;;;;;5031771;28;20385;-64
2022/09/06 12:02:50;;;;;;;2.70;1.30;;;47.80;33.70;;;;;;5031835;28;20025;-64
2022/09/06 12:05:24;;;;;;;3.00;1.60;;;47.80;33.80;;;;;;5029282;28;20143;-64
2022/09/06 12:08:11;;;;;;;2.03;1.38;;;48.40;33.80;;;;;;5031852;28;20040;-64
2022/09/06 12:10:45;;;;;;;2.05;1.50;;;49.20;33.60;;;;;;5031397;28;20103;-64
2022/09/06 12:13:40;;;;;;;2.08;1.40;;;49.50;33.00;;;;;;5030143;28;20037;-64
2022/09/06 12:16:07;;;;;;;2.07;1.37;;;49.70;32.90;;;;;;5030588;28;20464;-64
2022/09/06 12:18:45;;;;;;;;;;;49.90;32.70;;;;;;5030518;28;20770;-64
2022/09/06 12:21:36;;;;;;;3.13;2.10;;;50.00;32.70;;;;;;5031127;28;19928;-64
2022/09/06 12:24:02;;;;;;;1.70;1.60;;;50.10;32.30;;;;;;5029796;28;20033;-64
2022/09/06 12:26:49;;;;;;;2.35;2.00;;;50.00;32.20;;;;;;5029899;28;20124;-64
2022/09/06 12:29:16;;;;;;;2.22;2.03;;;50.00;32.30;;;;;;5030015;28;20029;-63
2022/09/06 12:31:50;;;;;;;2.22;2.03;;;50.00;32.20;;;;;;5032273;28;20025;-64
2022/09/06 12:34:23;;;;;;;2.08;1.88;;;50.10;32.40;;;;;;5034627;28;20512;-64
2022/09/06 12:37:03;;;;;;;3.20;2.00;;;50.20;32.60;;;;;;5033846;28;20037;-64
2022/09/06 12:39:29;;;;;;;2.00;1.80;;;50.00;32.50;;;;;;5032400;28;20034;-64
2022/09/06 12:42:27;;;;;;;1.90;1.80;;;50.00;32.60;;;;;;5034954;28;20036;-64
2022/09/06 12:44:54;;;;;;;1.95;1.85;;;49.90;32.30;;;;;;5023824;28;20115;-64
2022/09/06 12:47:29;;;;;;;2.33;1.90;;;49.80;32.20;;;;;;5033243;28;20017;-64
2022/09/06 12:50:24;;;;;;;1.60;1.50;;;49.50;32.30;;;;;;5030967;28;20684;-64
2022/09/06 12:52:59;;;;;;;3.35;1.95;;;49.00;32.50;;;;;;5033397;28;20030;-64
2022/09/06 12:55:33;;;;;;;2.08;1.88;;;48.30;32.50;;;;;;5030822;28;20025;-64
2022/09/06 12:58:05;;;;;;;2.08;1.88;;;47.80;32.90;;;;;;5029172;28;20028;-64
2022/09/06 13:01:03;;;;;;;2.00;1.80;;;47.50;33.20;;;;;;5029172;28;20529;-64
2022/09/06 13:03:39;;;;;;;2.45;1.90;;;47.10;33.40;;;;;;5030615;28;20033;-63
2022/09/06 13:06:05;;;;;;;2.30;1.98;;;47.00;33.20;;;;;;5029498;28;20029;-63